createdAt,value
2022-08-22T00:08:18.742Z,6.50
2022-08-22T00:18:51.349Z,5.13
2022-08-22T00:29:02.153Z,5.43
2022-08-22T00:39:11.145Z,5.50
2022-08-22T00:49:40.695Z,5.37
2022-08-22T00:59:44.910Z,5.30
2022-08-22T01:10:01.618Z,5.53
2022-08-22T01:20:33.537Z,5.27
2022-08-22T01:31:02.809Z,5.50
2022-08-22T01:41:29.052Z,5.10
2022-08-22T01:51:50.861Z,4.80
2022-08-22T02:02:04.030Z,4.90
2022-08-22T02:12:25.082Z,6.60
2022-08-22T02:22:37.090Z,6.63
2022-08-22T02:33:07.213Z,7.77
2022-08-22T02:43:20.714Z,6.67
2022-08-22T02:53:32.299Z,6.63
2022-08-22T03:03:39.905Z,6.63
2022-08-22T03:13:47.210Z,6.73
2022-08-22T03:23:55.109Z,7.17
2022-08-22T03:34:27.079Z,6.47
2022-08-22T03:45:19.826Z,6.63
2022-08-22T03:55:44.390Z,7.57
2022-08-22T04:06:12.710Z,6.50
2022-08-22T04:16:26.486Z,6.80
2022-08-22T04:26:42.476Z,6.70
2022-08-22T04:36:55.867Z,7.07
2022-08-22T04:47:13.159Z,7.10
2022-08-22T04:57:28.165Z,6.80
2022-08-22T05:07:39.822Z,6.90
2022-08-22T05:17:43.719Z,7.53
2022-08-22T05:27:53.299Z,6.97
2022-08-22T05:38:01.072Z,7.93
2022-08-22T05:48:16.168Z,7.43
2022-08-22T05:58:39.896Z,4.33
2022-08-22T06:08:55.298Z,4.53
2022-08-22T06:18:57.459Z,4.17
2022-08-22T06:29:45.606Z,5.17
2022-08-22T06:39:52.049Z,3.70
2022-08-22T06:49:58.985Z,3.08
2022-08-22T07:00:06.714Z,2.63
2022-08-22T07:10:12.794Z,2.80
2022-08-22T07:20:38.456Z,2.38
2022-08-22T07:30:58.081Z,2.50
2022-08-22T07:41:33.467Z,2.70
2022-08-22T07:51:48.291Z,2.00
2022-08-22T08:01:57.284Z,1.88
2022-08-22T08:12:02.262Z,1.98
2022-08-22T08:22:05.985Z,1.95
2022-08-22T08:32:10.974Z,1.70
2022-08-22T08:42:26.617Z,2.05
2022-08-22T08:53:04.270Z,1.80
2022-08-22T09:03:32.633Z,2.15
2022-08-22T09:14:05.689Z,1.80
2022-08-22T09:24:23.305Z,2.05
2022-08-22T09:34:35.251Z,1.77
2022-08-22T09:44:57.822Z,1.90
2022-08-22T09:55:11.718Z,1.70
2022-08-22T10:05:40.836Z,1.80
2022-08-22T10:15:49.945Z,1.65
2022-08-22T10:26:06.185Z,1.80
2022-08-22T10:36:12.944Z,1.85
2022-08-22T10:46:54.530Z,2.83
2022-08-22T10:57:21.232Z,1.75
2022-08-22T11:07:29.960Z,1.80
2022-08-22T11:17:53.961Z,2.03
2022-08-22T11:28:20.323Z,9.30
2022-08-22T11:38:36.776Z,2.45
2022-08-22T11:48:48.692Z,1.58
2022-08-22T11:59:04.973Z,1.33
2022-08-22T12:09:33.835Z,1.58
2022-08-22T12:20:15.110Z,1.23
2022-08-22T12:30:36.210Z,1.77
2022-08-22T12:41:01.778Z,1.58
2022-08-22T12:51:40.567Z,1.70
2022-08-22T13:01:48.355Z,2.40
2022-08-22T13:11:54.391Z,1.77
2022-08-22T13:22:04.780Z,2.20
2022-08-22T13:32:07.658Z,1.23
2022-08-22T13:42:29.815Z,1.63
2022-08-22T13:52:37.919Z,1.40
2022-08-22T14:02:48.778Z,1.25
2022-08-22T14:12:56.305Z,1.63
2022-08-22T14:23:07.112Z,1.80
2022-08-22T14:33:23.552Z,1.75
2022-08-22T14:43:31.937Z,2.00
2022-08-22T14:53:37.088Z,1.92
2022-08-22T15:03:40.788Z,1.75
2022-08-22T15:13:51.281Z,1.23
2022-08-22T15:24:02.026Z,1.70
2022-08-22T15:34:11.515Z,5.45
2022-08-22T15:44:31.048Z,5.50
2022-08-22T15:54:46.778Z,6.10
2022-08-22T16:05:23.042Z,4.37
2022-08-22T16:16:03.822Z,3.23
2022-08-22T16:26:08.069Z,4.70
2022-08-22T16:36:37.327Z,4.63
2022-08-22T16:46:43.999Z,5.17
2022-08-22T16:57:02.642Z,4.90
2022-08-22T17:07:26.809Z,7.10
2022-08-22T17:18:12.259Z,7.40
2022-08-22T17:28:20.063Z,5.93
2022-08-22T17:38:53.400Z,2.30
2022-08-22T17:49:12.177Z,1.90
2022-08-22T17:59:23.625Z,2.77
2022-08-22T18:09:57.257Z,3.30
2022-08-22T18:20:13.762Z,3.73
2022-08-22T18:30:20.553Z,4.70
2022-08-22T18:40:31.766Z,10.77
2022-08-22T18:50:36.455Z,11.27
2022-08-22T19:00:52.462Z,3.30
2022-08-22T19:11:13.447Z,3.50
2022-08-22T19:21:42.272Z,3.90
2022-08-22T19:31:50.438Z,3.73
2022-08-22T19:41:54.304Z,3.40
2022-08-22T19:52:16.516Z,3.93
2022-08-22T20:02:38.186Z,3.87
2022-08-22T20:13:02.296Z,4.00
2022-08-22T20:23:23.568Z,6.70
2022-08-22T20:33:29.316Z,5.57
2022-08-22T20:43:49.811Z,3.97
2022-08-22T20:53:52.934Z,4.33
2022-08-22T21:03:55.385Z,4.00
2022-08-22T21:13:56.932Z,4.60
2022-08-22T21:24:01.983Z,5.10
2022-08-22T21:34:03.587Z,4.70
2022-08-22T21:44:28.663Z,6.83
2022-08-22T21:54:40.397Z,4.20
2022-08-22T22:04:41.916Z,3.97
2022-08-22T22:14:46.616Z,4.83
2022-08-22T22:24:48.151Z,5.20
2022-08-22T22:34:49.640Z,5.17
2022-08-22T22:44:51.100Z,5.33
2022-08-22T22:54:52.835Z,9.87
2022-08-22T23:04:56.272Z,15.93
2022-08-22T23:14:57.754Z,13.80
2022-08-22T23:25:02.109Z,13.67
2022-08-22T23:35:04.803Z,14.27
2022-08-22T23:45:06.682Z,17.50
2022-08-22T23:55:08.730Z,22.77
